sensor_id;sensor_type;location;lat;lon;timestamp;pressure;altitude;pressure_sealevel;temperature;humidity
13705;BME280;6924;52.122;9.952;2023-05-01T00:01:25;100955.91;;;5.41;77.95
13705;BME280;6924;52.122;9.952;2023-05-01T00:03:51;100958.94;;;5.34;78.01
13705;BME280;6924;52.122;9.952;2023-05-01T00:06:18;100949.66;;;5.28;78.79
13705;BME280;6924;52.122;9.952;2023-05-01T00:08:44;100950.72;;;5.22;79.02
13705;BME280;6924;52.122;9.952;2023-05-01T00:11:12;100945.91;;;5.17;79.45
13705;BME280;6924;52.122;9.952;2023-05-01T00:13:40;100940.59;;;5.16;79.38
13705;BME280;6924;52.122;9.952;2023-05-01T00:16:07;100941.69;;;5.10;79.47
13705;BME280;6924;52.122;9.952;2023-05-01T00:18:34;100939.34;;;5.02;79.40
13705;BME280;6924;52.122;9.952;2023-05-01T00:21:00;100937.09;;;4.99;79.64
13705;BME280;6924;52.122;9.952;2023-05-01T00:23:27;100932.59;;;4.97;80.19
13705;BME280;6924;52.122;9.952;2023-05-01T00:25:53;100935.06;;;4.89;80.01
13705;BME280;6924;52.122;9.952;2023-05-01T00:28:21;100928.28;;;4.85;80.32
13705;BME280;6924;52.122;9.952;2023-05-01T00:30:47;100923.00;;;4.88;80.10
13705;BME280;6924;52.122;9.952;2023-05-01T00:33:13;100920.47;;;4.87;80.38
13705;BME280;6924;52.122;9.952;2023-05-01T00:35:42;100912.09;;;4.92;81.04
13705;BME280;6924;52.122;9.952;2023-05-01T00:38:09;100917.13;;;4.90;80.85
13705;BME280;6924;52.122;9.952;2023-05-01T00:40:40;100916.84;;;4.91;80.78
13705;BME280;6924;52.122;9.952;2023-05-01T00:43:07;100909.88;;;4.94;81.10
13705;BME280;6924;52.122;9.952;2023-05-01T00:45:34;100920.22;;;4.93;80.55
13705;BME280;6924;52.122;9.952;2023-05-01T00:48:01;100912.69;;;4.94;80.02
13705;BME280;6924;52.122;9.952;2023-05-01T00:50:28;100909.56;;;4.90;79.95
13705;BME280;6924;52.122;9.952;2023-05-01T00:52:55;100910.72;;;4.94;80.47
13705;BME280;6924;52.122;9.952;2023-05-01T00:55:21;100908.38;;;4.81;80.47
13705;BME280;6924;52.122;9.952;2023-05-01T00:57:48;100904.19;;;4.84;80.83
13705;BME280;6924;52.122;9.952;2023-05-01T01:00:15;100901.13;;;4.85;80.45
13705;BME280;6924;52.122;9.952;2023-05-01T01:02:45;100907.25;;;4.82;81.24
13705;BME280;6924;52.122;9.952;2023-05-01T01:05:11;100902.78;;;4.81;81.07
13705;BME280;6924;52.122;9.952;2023-05-01T01:07:41;100902.66;;;4.66;80.80
13705;BME280;6924;52.122;9.952;2023-05-01T01:10:15;100898.72;;;4.67;80.69
13705;BME280;6924;52.122;9.952;2023-05-01T01:12:49;100899.25;;;4.64;80.71
13705;BME280;6924;52.122;9.952;2023-05-01T01:15:24;100895.88;;;4.62;81.17
13705;BME280;6924;52.122;9.952;2023-05-01T01:17:58;100885.16;;;4.53;81.16
13705;BME280;6924;52.122;9.952;2023-05-01T01:20:31;100883.75;;;4.51;82.22
13705;BME280;6924;52.122;9.952;2023-05-01T01:23:12;100876.59;;;4.33;81.93
13705;BME280;6924;52.122;9.952;2023-05-01T01:26:10;100878.31;;;4.39;81.98
13705;BME280;6924;52.122;9.952;2023-05-01T01:29:01;100880.22;;;4.33;82.44
13705;BME280;6924;52.122;9.952;2023-05-01T01:31:32;100872.13;;;4.37;82.40
13705;BME280;6924;52.122;9.952;2023-05-01T01:34:12;100863.66;;;4.32;81.95
13705;BME280;6924;52.122;9.952;2023-05-01T01:36:43;100861.97;;;4.26;82.43
13705;BME280;6924;52.122;9.952;2023-05-01T01:39:18;100863.13;;;4.30;82.26
13705;BME280;6924;52.122;9.952;2023-05-01T01:41:48;100858.66;;;4.34;82.40
13705;BME280;6924;52.122;9.952;2023-05-01T01:44:26;100859.75;;;4.28;82.30
13705;BME280;6924;52.122;9.952;2023-05-01T01:46:53;100851.56;;;4.21;82.34
13705;BME280;6924;52.122;9.952;2023-05-01T01:49:24;100850.44;;;4.22;82.47
13705;BME280;6924;52.122;9.952;2023-05-01T01:51:52;100846.69;;;4.11;82.41
13705;BME280;6924;52.122;9.952;2023-05-01T01:54:23;100834.66;;;4.11;82.69
13705;BME280;6924;52.122;9.952;2023-05-01T01:56:52;100834.88;;;4.04;82.96
13705;BME280;6924;52.122;9.952;2023-05-01T01:59:20;100835.13;;;4.03;83.39
13705;BME280;6924;52.122;9.952;2023-05-01T02:01:48;100835.13;;;4.03;83.78
13705;BME280;6924;52.122;9.952;2023-05-01T02:04:17;100833.16;;;4.03;83.87
13705;BME280;6924;52.122;9.952;2023-05-01T02:06:45;100830.16;;;4.10;83.42
13705;BME280;6924;52.122;9.952;2023-05-01T02:09:15;100825.41;;;4.10;83.23
13705;BME280;6924;52.122;9.952;2023-05-01T02:11:44;100831.81;;;4.06;82.96
13705;BME280;6924;52.122;9.952;2023-05-01T02:14:12;100832.66;;;4.06;83.46
13705;BME280;6924;52.122;9.952;2023-05-01T02:16:40;100826.47;;;4.04;83.42
13705;BME280;6924;52.122;9.952;2023-05-01T02:19:07;100827.63;;;4.08;83.13
13705;BME280;6924;52.122;9.952;2023-05-01T02:21:35;100822.75;;;3.99;83.17
13705;BME280;6924;52.122;9.952;2023-05-01T02:24:04;100817.13;;;3.93;83.49
13705;BME280;6924;52.122;9.952;2023-05-01T02:26:38;100813.63;;;3.81;82.91
13705;BME280;6924;52.122;9.952;2023-05-01T02:29:06;100812.00;;;3.85;82.64
13705;BME280;6924;52.122;9.952;2023-05-01T02:31:33;100809.53;;;3.89;82.92
13705;BME280;6924;52.122;9.952;2023-05-01T02:33:59;100803.94;;;3.89;83.07
13705;BME280;6924;52.122;9.952;2023-05-01T02:36:25;100795.00;;;3.92;83.06
13705;BME280;6924;52.122;9.952;2023-05-01T02:38:52;100793.91;;;3.93;83.35
13705;BME280;6924;52.122;9.952;2023-05-01T02:41:21;100787.97;;;3.89;83.54
13705;BME280;6924;52.122;9.952;2023-05-01T02:43:51;100785.44;;;3.88;83.91
13705;BME280;6924;52.122;9.952;2023-05-01T02:46:20;100785.44;;;3.88;83.79
13705;BME280;6924;52.122;9.952;2023-05-01T02:48:49;100780.34;;;3.80;83.21
13705;BME280;6924;52.122;9.952;2023-05-01T02:51:17;100779.22;;;3.81;83.51
13705;BME280;6924;52.122;9.952;2023-05-01T02:53:45;100778.13;;;3.82;84.23
13705;BME280;6924;52.122;9.952;2023-05-01T02:56:12;100780.00;;;3.76;84.49
13705;BME280;6924;52.122;9.952;2023-05-01T02:58:40;100771.94;;;3.80;84.26
13705;BME280;6924;52.122;9.952;2023-05-01T03:01:07;100770.56;;;3.82;84.25
13705;BME280;6924;52.122;9.952;2023-05-01T03:03:33;100764.03;;;3.71;85.09
13705;BME280;6924;52.122;9.952;2023-05-01T03:05:59;100764.16;;;3.87;84.53
13705;BME280;6924;52.122;9.952;2023-05-01T03:08:27;100765.81;;;3.83;84.94
13705;BME280;6924;52.122;9.952;2023-05-01T03:10:53;100760.47;;;3.81;84.64
13705;BME280;6924;52.122;9.952;2023-05-01T03:13:19;100758.84;;;3.85;84.24
13705;BME280;6924;52.122;9.952;2023-05-01T03:15:48;100755.19;;;3.85;84.50
13705;BME280;6924;52.122;9.952;2023-05-01T03:18:14;100759.03;;;3.79;84.49
13705;BME280;6924;52.122;9.952;2023-05-01T03:20:50;100747.03;;;3.78;84.59
13705;BME280;6924;52.122;9.952;2023-05-01T03:23:16;100742.81;;;3.76;83.88
13705;BME280;6924;52.122;9.952;2023-05-01T03:25:42;100744.69;;;3.70;84.20
13705;BME280;6924;52.122;9.952;2023-05-01T03:28:09;100750.81;;;3.67;85.10
13705;BME280;6924;52.122;9.952;2023-05-01T03:30:35;100745.19;;;3.62;85.33
13705;BME280;6924;52.122;9.952;2023-05-01T03:33:03;100737.94;;;3.66;85.58
13705;BME280;6924;52.122;9.952;2023-05-01T03:35:29;100736.81;;;3.62;85.59
13705;BME280;6924;52.122;9.952;2023-05-01T03:37:56;100731.78;;;3.64;86.33
13705;BME280;6924;52.122;9.952;2023-05-01T03:40:22;100731.81;;;3.69;86.67
13705;BME280;6924;52.122;9.952;2023-05-01T03:42:48;100729.28;;;3.67;86.65
13705;BME280;6924;52.122;9.952;2023-05-01T03:45:15;100733.78;;;3.68;86.06
13705;BME280;6924;52.122;9.952;2023-05-01T03:47:41;100732.13;;;3.72;86.21
13705;BME280;6924;52.122;9.952;2023-05-01T03:50:09;100721.50;;;3.75;85.42
13705;BME280;6924;52.122;9.952;2023-05-01T03:52:37;100721.22;;;3.71;85.52
13705;BME280;6924;52.122;9.952;2023-05-01T03:55:04;100713.63;;;3.66;85.33
13705;BME280;6924;52.122;9.952;2023-05-01T03:57:31;100711.66;;;3.67;85.06
13705;BME280;6924;52.122;9.952;2023-05-01T03:59:58;100715.72;;;3.54;85.02
13705;BME280;6924;52.122;9.952;2023-05-01T04:02:25;100710.94;;;3.49;85.50
13705;BME280;6924;52.122;9.952;2023-05-01T04:04:51;100711.53;;;3.51;84.94
13705;BME280;6924;52.122;9.952;2023-05-01T04:07:19;100710.09;;;3.49;84.86
13705;BME280;6924;52.122;9.952;2023-05-01T04:09:45;100707.31;;;3.49;84.89
13705;BME280;6924;52.122;9.952;2023-05-01T04:12:12;100703.38;;;3.50;84.54
13705;BME280;6924;52.122;9.952;2023-05-01T04:14:38;100710.94;;;3.49;85.11
13705;BME280;6924;52.122;9.952;2023-05-01T04:17:05;100703.59;;;3.43;86.28
13705;BME280;6924;52.122;9.952;2023-05-01T04:19:31;100709.16;;;3.38;86.52
13705;BME280;6924;52.122;9.952;2023-05-01T04:21:58;100702.59;;;3.27;86.65
13705;BME280;6924;52.122;9.952;2023-05-01T04:24:26;100701.75;;;3.27;86.58
13705;BME280;6924;52.122;9.952;2023-05-01T04:26:53;100702.63;;;3.33;86.86
13705;BME280;6924;52.122;9.952;2023-05-01T04:29:19;100698.78;;;3.39;87.02
13705;BME280;6924;52.122;9.952;2023-05-01T04:31:46;100691.00;;;3.41;87.43
13705;BME280;6924;52.122;9.952;2023-05-01T04:34:12;100693.31;;;3.49;86.56
13705;BME280;6924;52.122;9.952;2023-05-01T04:36:39;100692.53;;;3.54;87.03
13705;BME280;6924;52.122;9.952;2023-05-01T04:39:05;100684.44;;;3.57;86.99
13705;BME280;6924;52.122;9.952;2023-05-01T04:41:33;100695.44;;;3.64;87.45
13705;BME280;6924;52.122;9.952;2023-05-01T04:43:59;100680.63;;;3.68;86.77
13705;BME280;6924;52.122;9.952;2023-05-01T04:46:26;100676.16;;;3.72;86.79
13705;BME280;6924;52.122;9.952;2023-05-01T04:48:52;100688.53;;;3.77;86.65
13705;BME280;6924;52.122;9.952;2023-05-01T04:51:18;100680.78;;;3.84;86.84
13705;BME280;6924;52.122;9.952;2023-05-01T04:53:45;100685.28;;;3.90;86.50
13705;BME280;6924;52.122;9.952;2023-05-01T04:56:12;100685.91;;;3.97;86.69
13705;BME280;6924;52.122;9.952;2023-05-01T04:58:39;100683.97;;;4.03;86.80
13705;BME280;6924;52.122;9.952;2023-05-01T05:01:06;100685.72;;;4.09;86.53
13705;BME280;6924;52.122;9.952;2023-05-01T05:03:32;100684.31;;;4.11;86.19
13705;BME280;6924;52.122;9.952;2023-05-01T05:05:59;100684.09;;;4.18;86.16
13705;BME280;6924;52.122;9.952;2023-05-01T05:08:25;100686.91;;;4.23;86.18
13705;BME280;6924;52.122;9.952;2023-05-01T05:10:55;100682.78;;;4.31;86.71
13705;BME280;6924;52.122;9.952;2023-05-01T05:13:22;100677.78;;;4.38;86.20
13705;BME280;6924;52.122;9.952;2023-05-01T05:15:49;100680.06;;;4.46;86.22
13705;BME280;6924;52.122;9.952;2023-05-01T05:18:16;100684.59;;;4.52;86.51
13705;BME280;6924;52.122;9.952;2023-05-01T05:20:42;100675.66;;;4.61;87.13
13705;BME280;6924;52.122;9.952;2023-05-01T05:23:09;100675.41;;;4.67;87.03
13705;BME280;6924;52.122;9.952;2023-05-01T05:25:35;100671.81;;;4.72;86.49
13705;BME280;6924;52.122;9.952;2023-05-01T05:28:02;100679.66;;;4.80;86.44
13705;BME280;6924;52.122;9.952;2023-05-01T05:30:28;100678.31;;;4.88;86.40
13705;BME280;6924;52.122;9.952;2023-05-01T05:32:56;100676.91;;;4.95;85.80
13705;BME280;6924;52.122;9.952;2023-05-01T05:35:23;100672.75;;;5.03;85.74
13705;BME280;6924;52.122;9.952;2023-05-01T05:37:49;100673.34;;;5.10;85.69
13705;BME280;6924;52.122;9.952;2023-05-01T05:40:15;100671.41;;;5.21;86.13
13705;BME280;6924;52.122;9.952;2023-05-01T05:42:43;100671.44;;;5.31;85.88
13705;BME280;6924;52.122;9.952;2023-05-01T05:45:10;100668.06;;;5.39;84.87
13705;BME280;6924;52.122;9.952;2023-05-01T05:47:36;100661.06;;;5.52;85.89
13705;BME280;6924;52.122;9.952;2023-05-01T05:50:05;100665.31;;;5.65;84.93
13705;BME280;6924;52.122;9.952;2023-05-01T05:52:32;100651.00;;;5.72;83.86
13705;BME280;6924;52.122;9.952;2023-05-01T05:54:59;100658.88;;;5.80;83.18
13705;BME280;6924;52.122;9.952;2023-05-01T05:57:25;100664.19;;;5.92;83.82
13705;BME280;6924;52.122;9.952;2023-05-01T05:59:52;100655.78;;;6.02;84.94
13705;BME280;6924;52.122;9.952;2023-05-01T06:02:18;100654.34;;;6.15;84.64
13705;BME280;6924;52.122;9.952;2023-05-01T06:04:45;100652.09;;;6.27;84.52
13705;BME280;6924;52.122;9.952;2023-05-01T06:07:12;100642.50;;;6.38;83.98
13705;BME280;6924;52.122;9.952;2023-05-01T06:09:39;100643.91;;;6.46;82.54
13705;BME280;6924;52.122;9.952;2023-05-01T06:12:05;100642.19;;;6.55;82.58
13705;BME280;6924;52.122;9.952;2023-05-01T06:14:32;100641.06;;;6.61;82.50
13705;BME280;6924;52.122;9.952;2023-05-01T06:16:58;100645.47;;;6.78;82.83
13705;BME280;6924;52.122;9.952;2023-05-01T06:19:25;100643.19;;;6.85;83.50
13705;BME280;6924;52.122;9.952;2023-05-01T06:21:52;100632.41;;;7.02;83.19
13705;BME280;6924;52.122;9.952;2023-05-01T06:24:19;100637.41;;;7.16;83.79
13705;BME280;6924;52.122;9.952;2023-05-01T06:26:46;100637.81;;;7.38;82.50
13705;BME280;6924;52.122;9.952;2023-05-01T06:29:12;100634.06;;;7.53;82.33
13705;BME280;6924;52.122;9.952;2023-05-01T06:31:38;100633.38;;;7.66;82.05
13705;BME280;6924;52.122;9.952;2023-05-01T06:34:05;100626.19;;;7.84;81.54
13705;BME280;6924;52.122;9.952;2023-05-01T06:36:31;100622.69;;;7.98;82.09
13705;BME280;6924;52.122;9.952;2023-05-01T06:38:58;100612.00;;;8.24;78.75
13705;BME280;6924;52.122;9.952;2023-05-01T06:41:25;100614.66;;;8.39;75.59
13705;BME280;6924;52.122;9.952;2023-05-01T06:43:52;100609.41;;;8.57;75.20
13705;BME280;6924;52.122;9.952;2023-05-01T06:46:18;100613.03;;;8.81;70.50
13705;BME280;6924;52.122;9.952;2023-05-01T06:48:45;100602.19;;;8.94;70.28
13705;BME280;6924;52.122;9.952;2023-05-01T06:51:11;100611.19;;;9.15;69.24
13705;BME280;6924;52.122;9.952;2023-05-01T06:53:39;100609.81;;;9.31;69.87
13705;BME280;6924;52.122;9.952;2023-05-01T06:56:06;100606.22;;;9.44;67.78
13705;BME280;6924;52.122;9.952;2023-05-01T06:58:33;100602.09;;;9.56;66.31
13705;BME280;6924;52.122;9.952;2023-05-01T07:01:00;100605.59;;;9.66;66.83
13705;BME280;6924;52.122;9.952;2023-05-01T07:03:26;100594.56;;;9.84;66.41
13705;BME280;6924;52.122;9.952;2023-05-01T07:05:53;100593.34;;;9.90;60.93
13705;BME280;6924;52.122;9.952;2023-05-01T07:08:20;100586.88;;;10.03;63.79
13705;BME280;6924;52.122;9.952;2023-05-01T07:10:46;100595.38;;;10.17;61.23
13705;BME280;6924;52.122;9.952;2023-05-01T07:13:13;100583.16;;;10.36;60.09
13705;BME280;6924;52.122;9.952;2023-05-01T07:15:41;100587.78;;;10.45;60.36
13705;BME280;6924;52.122;9.952;2023-05-01T07:18:08;100595.09;;;10.60;59.57
13705;BME280;6924;52.122;9.952;2023-05-01T07:20:36;100591.75;;;10.58;61.26
13705;BME280;6924;52.122;9.952;2023-05-01T07:23:03;100589.03;;;10.81;60.94
13705;BME280;6924;52.122;9.952;2023-05-01T07:25:29;100587.00;;;10.95;59.79
13705;BME280;6924;52.122;9.952;2023-05-01T07:27:56;100579.34;;;11.09;59.57
13705;BME280;6924;52.122;9.952;2023-05-01T07:30:25;100581.94;;;11.20;59.52
13705;BME280;6924;52.122;9.952;2023-05-01T07:32:52;100577.38;;;11.32;58.28
13705;BME280;6924;52.122;9.952;2023-05-01T07:35:19;100572.63;;;11.42;56.84
13705;BME280;6924;52.122;9.952;2023-05-01T07:37:45;100573.09;;;11.57;59.20
13705;BME280;6924;52.122;9.952;2023-05-01T07:40:11;100567.16;;;11.68;57.31
13705;BME280;6924;52.122;9.952;2023-05-01T07:42:38;100562.97;;;11.65;56.66
13705;BME280;6924;52.122;9.952;2023-05-01T07:45:05;100566.25;;;11.81;55.54
13705;BME280;6924;52.122;9.952;2023-05-01T07:47:32;100558.47;;;11.87;54.19
13705;BME280;6924;52.122;9.952;2023-05-01T07:49:59;100559.91;;;11.98;55.13
13705;BME280;6924;52.122;9.952;2023-05-01T07:52:26;100559.94;;;12.07;55.11
13705;BME280;6924;52.122;9.952;2023-05-01T07:54:52;100550.03;;;12.27;54.61
13705;BME280;6924;52.122;9.952;2023-05-01T07:57:18;100537.91;;;12.35;54.31
13705;BME280;6924;52.122;9.952;2023-05-01T07:59:47;100547.44;;;12.48;54.42
13705;BME280;6924;52.122;9.952;2023-05-01T08:02:15;100547.44;;;12.48;53.42
13705;BME280;6924;52.122;9.952;2023-05-01T08:04:42;100543.63;;;12.61;51.96
13705;BME280;6924;52.122;9.952;2023-05-01T08:07:11;100538.84;;;12.70;52.86
13705;BME280;6924;52.122;9.952;2023-05-01T08:09:37;100545.72;;;12.87;55.12
13705;BME280;6924;52.122;9.952;2023-05-01T08:12:04;100532.72;;;13.03;53.96
13705;BME280;6924;52.122;9.952;2023-05-01T08:14:30;100530.03;;;13.07;50.51
13705;BME280;6924;52.122;9.952;2023-05-01T08:16:57;100531.75;;;13.25;52.53
13705;BME280;6924;52.122;9.952;2023-05-01T08:19:23;100530.09;;;13.33;49.61
13705;BME280;6924;52.122;9.952;2023-05-01T08:21:52;100527.44;;;13.45;51.87
13705;BME280;6924;52.122;9.952;2023-05-01T08:24:20;100524.56;;;13.54;52.49
13705;BME280;6924;52.122;9.952;2023-05-01T08:26:46;100517.50;;;13.69;52.54
13705;BME280;6924;52.122;9.952;2023-05-01T08:29:13;100520.34;;;13.77;51.09
13705;BME280;6924;52.122;9.952;2023-05-01T08:31:39;100521.81;;;13.92;52.37
13705;BME280;6924;52.122;9.952;2023-05-01T08:34:07;100512.41;;;14.09;52.33
13705;BME280;6924;52.122;9.952;2023-05-01T08:36:33;100518.22;;;14.13;49.69
13705;BME280;6924;52.122;9.952;2023-05-01T08:39:00;100516.34;;;14.25;49.09
13705;BME280;6924;52.122;9.952;2023-05-01T08:41:28;100518.31;;;14.34;50.40
13705;BME280;6924;52.122;9.952;2023-05-01T08:43:56;100508.56;;;14.43;50.79
13705;BME280;6924;52.122;9.952;2023-05-01T08:46:35;100513.38;;;14.52;48.57
13705;BME280;6924;52.122;9.952;2023-05-01T08:49:03;100513.66;;;14.67;49.67
13705;BME280;6924;52.122;9.952;2023-05-01T08:51:31;100503.69;;;14.82;49.82
13705;BME280;6924;52.122;9.952;2023-05-01T08:53:58;100511.47;;;14.94;49.51
13705;BME280;6924;52.122;9.952;2023-05-01T08:56:29;100504.97;;;15.15;48.92
13705;BME280;6924;52.122;9.952;2023-05-01T08:58:59;100505.28;;;15.34;46.92
13705;BME280;6924;52.122;9.952;2023-05-01T09:01:28;100509.28;;;15.54;46.59
13705;BME280;6924;52.122;9.952;2023-05-01T09:03:57;100492.81;;;15.60;46.60
13705;BME280;6924;52.122;9.952;2023-05-01T09:06:24;100501.56;;;15.76;46.29
13705;BME280;6924;52.122;9.952;2023-05-01T09:08:52;100487.25;;;15.97;45.09
13705;BME280;6924;52.122;9.952;2023-05-01T09:11:19;100490.97;;;16.09;45.42
13705;BME280;6924;52.122;9.952;2023-05-01T09:13:47;100490.97;;;16.22;44.81
13705;BME280;6924;52.122;9.952;2023-05-01T09:16:13;100484.66;;;16.28;42.61
13705;BME280;6924;52.122;9.952;2023-05-01T09:18:40;100482.88;;;16.48;44.69
13705;BME280;6924;52.122;9.952;2023-05-01T09:21:07;100470.53;;;16.57;42.71
13705;BME280;6924;52.122;9.952;2023-05-01T09:23:36;100472.19;;;16.70;44.43
13705;BME280;6924;52.122;9.952;2023-05-01T09:26:05;100468.63;;;16.85;44.28
13705;BME280;6924;52.122;9.952;2023-05-01T09:28:39;100470.16;;;16.83;41.76
13705;BME280;6924;52.122;9.952;2023-05-01T09:31:21;100472.16;;;16.94;43.52
13705;BME280;6924;52.122;9.952;2023-05-01T09:33:52;100467.25;;;17.07;44.38
13705;BME280;6924;52.122;9.952;2023-05-01T09:36:19;100460.50;;;17.28;42.26
13705;BME280;6924;52.122;9.952;2023-05-01T09:38:46;100456.03;;;17.43;42.56
13705;BME280;6924;52.122;9.952;2023-05-01T09:41:13;100450.00;;;17.60;42.49
13705;BME280;6924;52.122;9.952;2023-05-01T09:43:40;100456.28;;;17.66;42.51
13705;BME280;6924;52.122;9.952;2023-05-01T09:46:09;100452.16;;;17.79;41.76
13705;BME280;6924;52.122;9.952;2023-05-01T09:48:38;100445.81;;;17.86;41.39
13705;BME280;6924;52.122;9.952;2023-05-01T09:51:19;100444.94;;;17.98;42.07
13705;BME280;6924;52.122;9.952;2023-05-01T09:53:46;100438.44;;;18.01;41.25
13705;BME280;6924;52.122;9.952;2023-05-01T09:56:13;100441.50;;;18.08;41.41
13705;BME280;6924;52.122;9.952;2023-05-01T09:58:39;100433.00;;;18.27;41.30
13705;BME280;6924;52.122;9.952;2023-05-01T10:01:06;100430.97;;;18.44;41.04
13705;BME280;6924;52.122;9.952;2023-05-01T10:03:33;100439.63;;;18.47;41.65
13705;BME280;6924;52.122;9.952;2023-05-01T10:06:01;100439.25;;;18.49;41.30
13705;BME280;6924;52.122;9.952;2023-05-01T10:08:43;100436.81;;;18.83;40.10
13705;BME280;6924;52.122;9.952;2023-05-01T10:11:09;100436.31;;;18.96;40.99
13705;BME280;6924;52.122;9.952;2023-05-01T10:13:36;100423.66;;;19.17;39.61
13705;BME280;6924;52.122;9.952;2023-05-01T10:16:03;100428.41;;;19.29;39.47
13705;BME280;6924;52.122;9.952;2023-05-01T10:18:32;100422.03;;;19.58;39.08
13705;BME280;6924;52.122;9.952;2023-05-01T10:21:01;100415.44;;;19.77;37.82
13705;BME280;6924;52.122;9.952;2023-05-01T10:23:28;100415.50;;;19.58;38.12
13705;BME280;6924;52.122;9.952;2023-05-01T10:25:55;100418.72;;;19.76;41.35
13705;BME280;6924;52.122;9.952;2023-05-01T10:28:23;100410.63;;;20.05;38.64
13705;BME280;6924;52.122;9.952;2023-05-01T10:30:53;100411.03;;;20.30;37.81
13705;BME280;6924;52.122;9.952;2023-05-01T10:33:21;100408.66;;;20.58;37.73
13705;BME280;6924;52.122;9.952;2023-05-01T10:35:53;100406.59;;;20.59;35.99
13705;BME280;6924;52.122;9.952;2023-05-01T10:38:25;100393.38;;;20.81;38.70
13705;BME280;6924;52.122;9.952;2023-05-01T10:40:54;100396.13;;;21.00;36.71
13705;BME280;6924;52.122;9.952;2023-05-01T10:43:22;100388.50;;;21.15;36.92
13705;BME280;6924;52.122;9.952;2023-05-01T10:45:54;100389.16;;;21.35;36.22
13705;BME280;6924;52.122;9.952;2023-05-01T10:48:56;100389.81;;;21.55;36.42
13705;BME280;6924;52.122;9.952;2023-05-01T10:51:23;100377.09;;;21.56;35.26
13705;BME280;6924;52.122;9.952;2023-05-01T10:54:24;100377.19;;;21.63;36.84
13705;BME280;6924;52.122;9.952;2023-05-01T10:56:51;100366.22;;;21.76;37.00
13705;BME280;6924;52.122;9.952;2023-05-01T10:59:18;100366.81;;;21.96;34.73
13705;BME280;6924;52.122;9.952;2023-05-01T11:01:45;100364.81;;;22.04;34.40
13705;BME280;6924;52.122;9.952;2023-05-01T11:04:45;100367.06;;;22.25;36.05
13705;BME280;6924;52.122;9.952;2023-05-01T11:07:16;100363.09;;;22.44;36.39
13705;BME280;6924;52.122;9.952;2023-05-01T11:09:45;100365.84;;;22.26;35.85
13705;BME280;6924;52.122;9.952;2023-05-01T11:12:14;100355.22;;;22.37;35.13
13705;BME280;6924;52.122;9.952;2023-05-01T11:15:03;100354.44;;;22.44;34.50
13705;BME280;6924;52.122;9.952;2023-05-01T11:17:54;100347.50;;;22.52;34.07
13705;BME280;6924;52.122;9.952;2023-05-01T11:20:48;100344.31;;;22.72;34.28
13705;BME280;6924;52.122;9.952;2023-05-01T11:23:19;100358.84;;;22.93;35.71
13705;BME280;6924;52.122;9.952;2023-05-01T11:25:47;100346.41;;;22.82;31.26
13705;BME280;6924;52.122;9.952;2023-05-01T11:28:18;100349.53;;;22.44;31.81
13705;BME280;6924;52.122;9.952;2023-05-01T11:30:48;100338.31;;;22.32;33.32
13705;BME280;6924;52.122;9.952;2023-05-01T11:33:21;100334.25;;;22.40;32.99
13705;BME280;6924;52.122;9.952;2023-05-01T11:35:56;100332.69;;;22.57;34.40
13705;BME280;6924;52.122;9.952;2023-05-01T11:38:23;100328.97;;;22.53;33.67
13705;BME280;6924;52.122;9.952;2023-05-01T11:40:56;100322.19;;;22.24;31.63
13705;BME280;6924;52.122;9.952;2023-05-01T11:43:23;100320.44;;;22.12;33.80
13705;BME280;6924;52.122;9.952;2023-05-01T11:45:51;100318.00;;;22.14;33.01
13705;BME280;6924;52.122;9.952;2023-05-01T11:48:19;100317.78;;;22.41;34.18
13705;BME280;6924;52.122;9.952;2023-05-01T11:50:46;100323.28;;;22.67;34.32
13705;BME280;6924;52.122;9.952;2023-05-01T11:53:13;100318.44;;;22.82;33.04
13705;BME280;6924;52.122;9.952;2023-05-01T11:55:41;100324.69;;;22.95;31.61
13705;BME280;6924;52.122;9.952;2023-05-01T11:58:10;100324.25;;;22.93;31.44
13705;BME280;6924;52.122;9.952;2023-05-01T12:00:38;100322.97;;;22.87;33.12
13705;BME280;6924;52.122;9.952;2023-05-01T12:03:07;100316.72;;;22.67;32.80
13705;BME280;6924;52.122;9.952;2023-05-01T12:05:35;100313.06;;;22.81;34.10
13705;BME280;6924;52.122;9.952;2023-05-01T12:08:07;100317.91;;;22.62;31.41
13705;BME280;6924;52.122;9.952;2023-05-01T12:10:35;100323.09;;;22.32;31.75
13705;BME280;6924;52.122;9.952;2023-05-01T12:13:01;100315.34;;;22.46;33.30
13705;BME280;6924;52.122;9.952;2023-05-01T12:15:30;100317.53;;;22.67;32.45
13705;BME280;6924;52.122;9.952;2023-05-01T12:17:57;100313.91;;;22.85;32.85
13705;BME280;6924;52.122;9.952;2023-05-01T12:20:33;100313.53;;;22.97;33.39
13705;BME280;6924;52.122;9.952;2023-05-01T12:23:00;100305.81;;;23.08;31.99
13705;BME280;6924;52.122;9.952;2023-05-01T12:25:29;100306.50;;;22.87;30.60
13705;BME280;6924;52.122;9.952;2023-05-01T12:27:56;100308.00;;;22.56;31.19
13705;BME280;6924;52.122;9.952;2023-05-01T12:30:26;100308.22;;;21.78;31.71
13705;BME280;6924;52.122;9.952;2023-05-01T12:32:55;100302.88;;;21.76;32.18
13705;BME280;6924;52.122;9.952;2023-05-01T12:35:28;100305.69;;;21.69;31.17
13705;BME280;6924;52.122;9.952;2023-05-01T12:37:54;100300.72;;;21.66;31.61
13705;BME280;6924;52.122;9.952;2023-05-01T12:40:21;100301.53;;;21.66;32.04
13705;BME280;6924;52.122;9.952;2023-05-01T12:42:53;100300.34;;;21.67;32.92
13705;BME280;6924;52.122;9.952;2023-05-01T12:45:20;100303.78;;;21.87;34.66
13705;BME280;6924;52.122;9.952;2023-05-01T12:47:46;100288.63;;;21.98;34.81
13705;BME280;6924;52.122;9.952;2023-05-01T12:50:14;100289.16;;;22.07;34.13
13705;BME280;6924;52.122;9.952;2023-05-01T12:52:41;100287.94;;;22.12;34.61
13705;BME280;6924;52.122;9.952;2023-05-01T12:55:08;100292.50;;;22.20;33.95
13705;BME280;6924;52.122;9.952;2023-05-01T12:57:34;100285.84;;;22.05;33.47
13705;BME280;6924;52.122;9.952;2023-05-01T13:00:02;100277.25;;;22.16;33.69
13705;BME280;6924;52.122;9.952;2023-05-01T13:02:31;100282.69;;;22.24;34.22
13705;BME280;6924;52.122;9.952;2023-05-01T13:05:05;100281.09;;;22.31;34.18
13705;BME280;6924;52.122;9.952;2023-05-01T13:07:34;100269.91;;;22.22;33.67
13705;BME280;6924;52.122;9.952;2023-05-01T13:10:01;100270.66;;;22.15;32.85
13705;BME280;6924;52.122;9.952;2023-05-01T13:12:30;100265.47;;;21.76;32.67